sensor_id;sensor_type;location;lat;lon;timestamp;temperature;humidity
1367;DHT22;16877;48.810;9.282;2022-10-31T00:00:28;25.60;52.20
1367;DHT22;16877;48.810;9.282;2022-10-31T00:02:56;25.50;52.00
1367;DHT22;16877;48.810;9.282;2022-10-31T00:05:23;25.50;52.10
1367;DHT22;16877;48.810;9.282;2022-10-31T00:07:52;25.50;52.00
1367;DHT22;16877;48.810;9.282;2022-10-31T00:10:18;25.50;52.10
1367;DHT22;16877;48.810;9.282;2022-10-31T00:12:45;25.50;52.60
1367;DHT22;16877;48.810;9.282;2022-10-31T00:15:12;25.40;51.90
1367;DHT22;16877;48.810;9.282;2022-10-31T00:17:38;25.40;52.00
1367;DHT22;16877;48.810;9.282;2022-10-31T00:20:08;25.40;52.00
1367;DHT22;16877;48.810;9.282;2022-10-31T00:22:34;25.30;51.90
1367;DHT22;16877;48.810;9.282;2022-10-31T00:25:01;25.40;52.00
1367;DHT22;16877;48.810;9.282;2022-10-31T00:27:28;25.40;52.00
1367;DHT22;16877;48.810;9.282;2022-10-31T00:29:55;25.40;52.00
1367;DHT22;16877;48.810;9.282;2022-10-31T00:32:21;25.20;52.00
1367;DHT22;16877;48.810;9.282;2022-10-31T00:34:48;25.20;52.00
1367;DHT22;16877;48.810;9.282;2022-10-31T00:37:16;25.30;52.00
1367;DHT22;16877;48.810;9.282;2022-10-31T00:39:43;25.20;52.00
1367;DHT22;16877;48.810;9.282;2022-10-31T00:42:10;25.30;52.00
1367;DHT22;16877;48.810;9.282;2022-10-31T00:44:37;25.20;51.90
1367;DHT22;16877;48.810;9.282;2022-10-31T00:47:04;25.30;52.00
1367;DHT22;16877;48.810;9.282;2022-10-31T00:49:30;25.20;52.50
1367;DHT22;16877;48.810;9.282;2022-10-31T00:51:57;25.30;52.00
1367;DHT22;16877;48.810;9.282;2022-10-31T00:54:25;25.10;51.80
1367;DHT22;16877;48.810;9.282;2022-10-31T00:56:52;25.20;51.80
1367;DHT22;16877;48.810;9.282;2022-10-31T00:59:18;25.10;51.80
1367;DHT22;16877;48.810;9.282;2022-10-31T01:01:45;25.10;51.80
1367;DHT22;16877;48.810;9.282;2022-10-31T01:04:12;25.10;51.80
1367;DHT22;16877;48.810;9.282;2022-10-31T01:06:38;25.10;51.80
1367;DHT22;16877;48.810;9.282;2022-10-31T01:09:05;25.10;51.80
1367;DHT22;16877;48.810;9.282;2022-10-31T01:11:33;25.10;51.80
1367;DHT22;16877;48.810;9.282;2022-10-31T01:14:00;25.10;51.90
1367;DHT22;16877;48.810;9.282;2022-10-31T01:16:27;25.00;51.80
1367;DHT22;16877;48.810;9.282;2022-10-31T01:18:55;25.00;51.80
1367;DHT22;16877;48.810;9.282;2022-10-31T01:21:24;25.00;51.80
1367;DHT22;16877;48.810;9.282;2022-10-31T01:23:53;25.00;51.80
1367;DHT22;16877;48.810;9.282;2022-10-31T01:26:21;25.00;51.90
1367;DHT22;16877;48.810;9.282;2022-10-31T01:28:53;24.90;51.80
1367;DHT22;16877;48.810;9.282;2022-10-31T01:31:22;24.90;51.80
1367;DHT22;16877;48.810;9.282;2022-10-31T01:33:49;24.90;51.80
1367;DHT22;16877;48.810;9.282;2022-10-31T01:36:17;24.90;51.80
1367;DHT22;16877;48.810;9.282;2022-10-31T01:38:45;24.90;51.80
1367;DHT22;16877;48.810;9.282;2022-10-31T01:41:13;24.80;51.80
1367;DHT22;16877;48.810;9.282;2022-10-31T01:43:52;24.90;51.80
1367;DHT22;16877;48.810;9.282;2022-10-31T01:46:22;24.80;51.70
1367;DHT22;16877;48.810;9.282;2022-10-31T01:48:51;24.80;51.70
1367;DHT22;16877;48.810;9.282;2022-10-31T01:51:21;24.80;51.70
1367;DHT22;16877;48.810;9.282;2022-10-31T01:53:50;24.80;51.70
1367;DHT22;16877;48.810;9.282;2022-10-31T01:56:19;24.80;51.80
1367;DHT22;16877;48.810;9.282;2022-10-31T01:58:46;24.70;51.70
1367;DHT22;16877;48.810;9.282;2022-10-31T02:01:15;24.80;51.70
1367;DHT22;16877;48.810;9.282;2022-10-31T02:03:43;24.70;51.70
1367;DHT22;16877;48.810;9.282;2022-10-31T02:06:17;24.80;51.70
1367;DHT22;16877;48.810;9.282;2022-10-31T02:08:46;24.70;51.70
1367;DHT22;16877;48.810;9.282;2022-10-31T02:11:14;24.70;51.70
1367;DHT22;16877;48.810;9.282;2022-10-31T02:13:41;24.70;51.70
1367;DHT22;16877;48.810;9.282;2022-10-31T02:16:09;24.70;51.70
1367;DHT22;16877;48.810;9.282;2022-10-31T02:18:38;24.60;51.70
1367;DHT22;16877;48.810;9.282;2022-10-31T02:21:13;24.60;51.70
1367;DHT22;16877;48.810;9.282;2022-10-31T02:24:09;24.70;51.70
1367;DHT22;16877;48.810;9.282;2022-10-31T02:27:16;24.70;51.70
1367;DHT22;16877;48.810;9.282;2022-10-31T02:30:03;24.60;51.70
1367;DHT22;16877;48.810;9.282;2022-10-31T02:32:38;24.60;51.70
1367;DHT22;16877;48.810;9.282;2022-10-31T02:35:11;24.60;51.80
1367;DHT22;16877;48.810;9.282;2022-10-31T02:37:46;24.60;51.80
1367;DHT22;16877;48.810;9.282;2022-10-31T02:40:19;24.60;51.80
1367;DHT22;16877;48.810;9.282;2022-10-31T02:42:50;24.60;51.80
1367;DHT22;16877;48.810;9.282;2022-10-31T02:45:25;24.60;51.80
1367;DHT22;16877;48.810;9.282;2022-10-31T02:47:58;24.60;51.80
1367;DHT22;16877;48.810;9.282;2022-10-31T02:50:28;24.50;51.80
1367;DHT22;16877;48.810;9.282;2022-10-31T02:52:57;24.50;51.80
1367;DHT22;16877;48.810;9.282;2022-10-31T02:55:44;24.50;51.80
1367;DHT22;16877;48.810;9.282;2022-10-31T02:58:15;24.50;51.70
1367;DHT22;16877;48.810;9.282;2022-10-31T03:01:00;24.50;51.80
1367;DHT22;16877;48.810;9.282;2022-10-31T03:03:35;24.50;51.80
1367;DHT22;16877;48.810;9.282;2022-10-31T03:06:07;24.50;51.80
1367;DHT22;16877;48.810;9.282;2022-10-31T03:08:39;24.40;51.70
1367;DHT22;16877;48.810;9.282;2022-10-31T03:11:08;24.40;51.70
1367;DHT22;16877;48.810;9.282;2022-10-31T03:13:39;24.40;51.70
1367;DHT22;16877;48.810;9.282;2022-10-31T03:16:10;24.40;52.20
1367;DHT22;16877;48.810;9.282;2022-10-31T03:18:43;24.40;51.70
1367;DHT22;16877;48.810;9.282;2022-10-31T03:21:18;24.40;51.70
1367;DHT22;16877;48.810;9.282;2022-10-31T03:23:48;24.30;51.60
1367;DHT22;16877;48.810;9.282;2022-10-31T03:26:17;24.30;51.60
1367;DHT22;16877;48.810;9.282;2022-10-31T03:28:48;24.30;51.60
1367;DHT22;16877;48.810;9.282;2022-10-31T03:31:18;24.30;51.70
1367;DHT22;16877;48.810;9.282;2022-10-31T03:33:49;24.30;51.70
1367;DHT22;16877;48.810;9.282;2022-10-31T03:36:18;24.30;51.70
1367;DHT22;16877;48.810;9.282;2022-10-31T03:38:45;24.20;51.60
1367;DHT22;16877;48.810;9.282;2022-10-31T03:41:16;24.30;51.70
1367;DHT22;16877;48.810;9.282;2022-10-31T03:43:50;24.30;51.70
1367;DHT22;16877;48.810;9.282;2022-10-31T03:46:18;24.20;51.70
1367;DHT22;16877;48.810;9.282;2022-10-31T03:48:45;24.20;51.60
1367;DHT22;16877;48.810;9.282;2022-10-31T03:51:15;24.20;51.60
1367;DHT22;16877;48.810;9.282;2022-10-31T03:53:46;24.20;51.60
1367;DHT22;16877;48.810;9.282;2022-10-31T03:56:19;24.10;51.50
1367;DHT22;16877;48.810;9.282;2022-10-31T03:58:54;24.20;51.60
1367;DHT22;16877;48.810;9.282;2022-10-31T04:01:23;24.20;51.60
1367;DHT22;16877;48.810;9.282;2022-10-31T04:03:53;24.10;51.50
1367;DHT22;16877;48.810;9.282;2022-10-31T04:06:23;24.10;51.50
1367;DHT22;16877;48.810;9.282;2022-10-31T04:08:53;24.10;51.60
1367;DHT22;16877;48.810;9.282;2022-10-31T04:11:24;24.10;51.60
1367;DHT22;16877;48.810;9.282;2022-10-31T04:13:53;24.00;51.60
1367;DHT22;16877;48.810;9.282;2022-10-31T04:16:21;24.00;51.60
1367;DHT22;16877;48.810;9.282;2022-10-31T04:18:49;24.00;51.60
1367;DHT22;16877;48.810;9.282;2022-10-31T04:21:16;24.00;51.60
1367;DHT22;16877;48.810;9.282;2022-10-31T04:23:44;24.00;51.70
1367;DHT22;16877;48.810;9.282;2022-10-31T04:26:12;24.00;51.60
1367;DHT22;16877;48.810;9.282;2022-10-31T04:28:38;24.00;51.60
1367;DHT22;16877;48.810;9.282;2022-10-31T04:31:05;24.00;51.60
1367;DHT22;16877;48.810;9.282;2022-10-31T04:33:32;24.00;51.50
1367;DHT22;16877;48.810;9.282;2022-10-31T04:35:58;23.90;51.50
1367;DHT22;16877;48.810;9.282;2022-10-31T04:38:25;23.90;51.50
1367;DHT22;16877;48.810;9.282;2022-10-31T04:40:53;23.90;51.50
1367;DHT22;16877;48.810;9.282;2022-10-31T04:43:20;23.90;51.50
1367;DHT22;16877;48.810;9.282;2022-10-31T04:45:47;23.90;51.50
1367;DHT22;16877;48.810;9.282;2022-10-31T04:48:14;23.80;51.40
1367;DHT22;16877;48.810;9.282;2022-10-31T04:50:40;23.90;51.40
1367;DHT22;16877;48.810;9.282;2022-10-31T04:53:07;23.80;51.30
1367;DHT22;16877;48.810;9.282;2022-10-31T04:55:35;23.90;51.40
1367;DHT22;16877;48.810;9.282;2022-10-31T04:58:03;23.70;51.30
1367;DHT22;16877;48.810;9.282;2022-10-31T05:00:30;23.70;51.30
1367;DHT22;16877;48.810;9.282;2022-10-31T05:02:57;23.80;51.40
1367;DHT22;16877;48.810;9.282;2022-10-31T05:05:26;23.80;51.40
1367;DHT22;16877;48.810;9.282;2022-10-31T05:07:53;23.70;51.50
1367;DHT22;16877;48.810;9.282;2022-10-31T05:10:22;23.70;51.30
1367;DHT22;16877;48.810;9.282;2022-10-31T05:12:50;23.70;51.20
1367;DHT22;16877;48.810;9.282;2022-10-31T05:15:20;23.60;51.20
1367;DHT22;16877;48.810;9.282;2022-10-31T05:17:47;23.60;51.10
1367;DHT22;16877;48.810;9.282;2022-10-31T05:20:16;23.60;51.10
1367;DHT22;16877;48.810;9.282;2022-10-31T05:22:44;23.60;51.10
1367;DHT22;16877;48.810;9.282;2022-10-31T05:25:11;23.60;51.10
1367;DHT22;16877;48.810;9.282;2022-10-31T05:27:39;23.60;51.10
1367;DHT22;16877;48.810;9.282;2022-10-31T05:30:06;23.70;51.20
1367;DHT22;16877;48.810;9.282;2022-10-31T05:32:38;23.60;51.10
1367;DHT22;16877;48.810;9.282;2022-10-31T05:35:06;23.50;51.00
1367;DHT22;16877;48.810;9.282;2022-10-31T05:37:34;23.60;50.90
1367;DHT22;16877;48.810;9.282;2022-10-31T05:40:00;23.50;50.90
1367;DHT22;16877;48.810;9.282;2022-10-31T05:42:27;23.50;50.90
1367;DHT22;16877;48.810;9.282;2022-10-31T05:44:54;23.50;50.90
1367;DHT22;16877;48.810;9.282;2022-10-31T05:47:21;23.50;50.90
1367;DHT22;16877;48.810;9.282;2022-10-31T05:49:49;23.50;50.80
1367;DHT22;16877;48.810;9.282;2022-10-31T05:52:15;23.50;50.80
1367;DHT22;16877;48.810;9.282;2022-10-31T05:54:42;23.50;50.90
1367;DHT22;16877;48.810;9.282;2022-10-31T05:57:09;23.50;50.90
1367;DHT22;16877;48.810;9.282;2022-10-31T05:59:36;23.40;50.90
1367;DHT22;16877;48.810;9.282;2022-10-31T06:02:02;23.40;50.90
1367;DHT22;16877;48.810;9.282;2022-10-31T06:04:29;23.30;50.80
1367;DHT22;16877;48.810;9.282;2022-10-31T06:06:58;23.40;51.00
1367;DHT22;16877;48.810;9.282;2022-10-31T06:09:24;23.40;50.90
1367;DHT22;16877;48.810;9.282;2022-10-31T06:11:51;23.40;51.00
1367;DHT22;16877;48.810;9.282;2022-10-31T06:14:18;23.40;50.90
1367;DHT22;16877;48.810;9.282;2022-10-31T06:16:44;23.40;50.90
1367;DHT22;16877;48.810;9.282;2022-10-31T06:19:11;23.40;50.90
1367;DHT22;16877;48.810;9.282;2022-10-31T06:21:38;23.40;50.90
1367;DHT22;16877;48.810;9.282;2022-10-31T06:24:06;23.40;50.90
1367;DHT22;16877;48.810;9.282;2022-10-31T06:26:33;23.40;50.90
1367;DHT22;16877;48.810;9.282;2022-10-31T06:29:00;23.40;50.90
1367;DHT22;16877;48.810;9.282;2022-10-31T06:31:26;23.40;50.90
1367;DHT22;16877;48.810;9.282;2022-10-31T06:33:53;23.40;50.80
1367;DHT22;16877;48.810;9.282;2022-10-31T06:36:20;23.40;50.80
1367;DHT22;16877;48.810;9.282;2022-10-31T06:38:47;23.40;50.80
1367;DHT22;16877;48.810;9.282;2022-10-31T06:41:15;23.40;50.80
1367;DHT22;16877;48.810;9.282;2022-10-31T06:43:41;23.50;50.90
1367;DHT22;16877;48.810;9.282;2022-10-31T06:46:08;23.50;50.90
1367;DHT22;16877;48.810;9.282;2022-10-31T06:48:35;23.50;50.90
1367;DHT22;16877;48.810;9.282;2022-10-31T06:51:02;23.50;50.90
1367;DHT22;16877;48.810;9.282;2022-10-31T06:53:28;23.60;50.90
1367;DHT22;16877;48.810;9.282;2022-10-31T06:55:56;23.70;50.90
1367;DHT22;16877;48.810;9.282;2022-10-31T06:58:24;23.70;50.80
1367;DHT22;16877;48.810;9.282;2022-10-31T07:00:51;23.90;50.90
1367;DHT22;16877;48.810;9.282;2022-10-31T07:03:17;23.90;50.80
1367;DHT22;16877;48.810;9.282;2022-10-31T07:05:45;24.00;50.90
1367;DHT22;16877;48.810;9.282;2022-10-31T07:08:13;24.00;50.70
1367;DHT22;16877;48.810;9.282;2022-10-31T07:10:42;24.10;50.80
1367;DHT22;16877;48.810;9.282;2022-10-31T07:13:12;24.10;50.70
1367;DHT22;16877;48.810;9.282;2022-10-31T07:15:42;24.20;50.70
1367;DHT22;16877;48.810;9.282;2022-10-31T07:18:11;24.30;50.70
1367;DHT22;16877;48.810;9.282;2022-10-31T07:20:38;24.50;50.80
1367;DHT22;16877;48.810;9.282;2022-10-31T07:23:04;24.50;50.70
1367;DHT22;16877;48.810;9.282;2022-10-31T07:25:31;24.50;50.60
1367;DHT22;16877;48.810;9.282;2022-10-31T07:27:58;24.60;50.50
1367;DHT22;16877;48.810;9.282;2022-10-31T07:30:24;24.70;50.50
1367;DHT22;16877;48.810;9.282;2022-10-31T07:32:52;24.80;50.40
1367;DHT22;16877;48.810;9.282;2022-10-31T07:35:20;24.90;50.40
1367;DHT22;16877;48.810;9.282;2022-10-31T07:37:48;25.00;50.40
1367;DHT22;16877;48.810;9.282;2022-10-31T07:40:15;24.90;50.20
1367;DHT22;16877;48.810;9.282;2022-10-31T07:42:43;25.10;50.20
1367;DHT22;16877;48.810;9.282;2022-10-31T07:45:12;25.10;50.20
1367;DHT22;16877;48.810;9.282;2022-10-31T07:47:39;25.10;50.20
1367;DHT22;16877;48.810;9.282;2022-10-31T07:50:08;25.10;50.10
1367;DHT22;16877;48.810;9.282;2022-10-31T07:52:35;25.30;50.20
1367;DHT22;16877;48.810;9.282;2022-10-31T07:55:03;25.30;50.10
1367;DHT22;16877;48.810;9.282;2022-10-31T07:57:30;25.30;50.10
1367;DHT22;16877;48.810;9.282;2022-10-31T07:59:56;25.30;50.00
1367;DHT22;16877;48.810;9.282;2022-10-31T08:02:23;25.40;50.00
1367;DHT22;16877;48.810;9.282;2022-10-31T08:04:50;25.50;50.00
1367;DHT22;16877;48.810;9.282;2022-10-31T08:07:19;25.70;50.00
1367;DHT22;16877;48.810;9.282;2022-10-31T08:09:45;25.70;50.00
1367;DHT22;16877;48.810;9.282;2022-10-31T08:12:12;25.80;50.00
1367;DHT22;16877;48.810;9.282;2022-10-31T08:14:39;25.80;49.90
1367;DHT22;16877;48.810;9.282;2022-10-31T08:17:05;26.00;49.80
1367;DHT22;16877;48.810;9.282;2022-10-31T08:19:32;26.00;49.70
1367;DHT22;16877;48.810;9.282;2022-10-31T08:21:59;26.10;49.70
1367;DHT22;16877;48.810;9.282;2022-10-31T08:24:27;26.20;49.50
1367;DHT22;16877;48.810;9.282;2022-10-31T08:26:53;26.30;49.50
1367;DHT22;16877;48.810;9.282;2022-10-31T08:29:20;26.40;49.40
1367;DHT22;16877;48.810;9.282;2022-10-31T08:31:47;26.40;49.40
1367;DHT22;16877;48.810;9.282;2022-10-31T08:34:14;26.40;49.20
1367;DHT22;16877;48.810;9.282;2022-10-31T08:36:40;26.60;49.20
1367;DHT22;16877;48.810;9.282;2022-10-31T08:39:10;26.60;49.20
1367;DHT22;16877;48.810;9.282;2022-10-31T08:41:38;26.70;49.10
1367;DHT22;16877;48.810;9.282;2022-10-31T08:44:05;26.80;49.10
1367;DHT22;16877;48.810;9.282;2022-10-31T08:46:31;26.80;49.10
1367;DHT22;16877;48.810;9.282;2022-10-31T08:48:58;26.90;49.00
1367;DHT22;16877;48.810;9.282;2022-10-31T08:51:25;26.90;49.00
1367;DHT22;16877;48.810;9.282;2022-10-31T08:53:51;27.20;49.00
1367;DHT22;16877;48.810;9.282;2022-10-31T08:56:18;27.20;49.00
1367;DHT22;16877;48.810;9.282;2022-10-31T08:58:46;27.30;48.90
1367;DHT22;16877;48.810;9.282;2022-10-31T09:01:13;27.40;48.80
1367;DHT22;16877;48.810;9.282;2022-10-31T09:03:39;27.50;48.70
1367;DHT22;16877;48.810;9.282;2022-10-31T09:06:06;27.70;48.70
1367;DHT22;16877;48.810;9.282;2022-10-31T09:08:35;27.70;48.60
1367;DHT22;16877;48.810;9.282;2022-10-31T09:11:03;27.70;48.40
1367;DHT22;16877;48.810;9.282;2022-10-31T09:13:30;27.80;48.40
1367;DHT22;16877;48.810;9.282;2022-10-31T09:15:58;27.90;48.40
1367;DHT22;16877;48.810;9.282;2022-10-31T09:18:25;28.00;48.30
1367;DHT22;16877;48.810;9.282;2022-10-31T09:20:53;28.20;48.40
1367;DHT22;16877;48.810;9.282;2022-10-31T09:23:21;28.20;48.30
1367;DHT22;16877;48.810;9.282;2022-10-31T09:25:49;28.10;48.10
1367;DHT22;16877;48.810;9.282;2022-10-31T09:28:18;28.30;48.00
1367;DHT22;16877;48.810;9.282;2022-10-31T09:30:46;28.30;47.90
1367;DHT22;16877;48.810;9.282;2022-10-31T09:33:15;28.30;47.80
1367;DHT22;16877;48.810;9.282;2022-10-31T09:35:42;28.40;47.80
1367;DHT22;16877;48.810;9.282;2022-10-31T09:38:10;28.30;47.70
1367;DHT22;16877;48.810;9.282;2022-10-31T09:40:38;28.40;47.70
1367;DHT22;16877;48.810;9.282;2022-10-31T09:43:14;28.40;47.70
1367;DHT22;16877;48.810;9.282;2022-10-31T09:45:50;28.50;47.70
1367;DHT22;16877;48.810;9.282;2022-10-31T09:48:52;28.60;47.80
1367;DHT22;16877;48.810;9.282;2022-10-31T09:51:25;28.50;47.70
1367;DHT22;16877;48.810;9.282;2022-10-31T09:54:00;28.60;47.80
1367;DHT22;16877;48.810;9.282;2022-10-31T09:56:27;28.40;47.70
1367;DHT22;16877;48.810;9.282;2022-10-31T09:58:57;28.60;47.90
1367;DHT22;16877;48.810;9.282;2022-10-31T10:01:32;28.70;47.90
1367;DHT22;16877;48.810;9.282;2022-10-31T10:04:05;28.70;48.00
1367;DHT22;16877;48.810;9.282;2022-10-31T10:06:38;28.80;48.10
1367;DHT22;16877;48.810;9.282;2022-10-31T10:09:08;29.00;48.00
1367;DHT22;16877;48.810;9.282;2022-10-31T10:11:46;29.00;47.90
1367;DHT22;16877;48.810;9.282;2022-10-31T10:14:28;29.10;47.90
1367;DHT22;16877;48.810;9.282;2022-10-31T10:17:12;29.30;47.90
1367;DHT22;16877;48.810;9.282;2022-10-31T10:19:55;29.30;47.70
1367;DHT22;16877;48.810;9.282;2022-10-31T10:22:30;29.50;47.70
1367;DHT22;16877;48.810;9.282;2022-10-31T10:25:09;29.70;47.50
1367;DHT22;16877;48.810;9.282;2022-10-31T10:27:49;29.70;47.40
1367;DHT22;16877;48.810;9.282;2022-10-31T10:30:18;29.80;47.30
1367;DHT22;16877;48.810;9.282;2022-10-31T10:32:48;29.90;47.40
1367;DHT22;16877;48.810;9.282;2022-10-31T10:35:22;30.00;47.70
1367;DHT22;16877;48.810;9.282;2022-10-31T10:37:52;30.10;47.70
1367;DHT22;16877;48.810;9.282;2022-10-31T10:40:24;30.20;48.00
1367;DHT22;16877;48.810;9.282;2022-10-31T10:42:59;30.30;48.20
1367;DHT22;16877;48.810;9.282;2022-10-31T10:45:48;30.50;48.20
1367;DHT22;16877;48.810;9.282;2022-10-31T10:48:41;30.50;48.20
1367;DHT22;16877;48.810;9.282;2022-10-31T10:51:23;30.60;47.90
1367;DHT22;16877;48.810;9.282;2022-10-31T10:54:00;30.40;47.30
1367;DHT22;16877;48.810;9.282;2022-10-31T10:56:44;30.40;47.20
1367;DHT22;16877;48.810;9.282;2022-10-31T10:59:15;30.40;47.10
1367;DHT22;16877;48.810;9.282;2022-10-31T11:01:43;30.20;47.00
1367;DHT22;16877;48.810;9.282;2022-10-31T11:04:30;30.40;47.00
1367;DHT22;16877;48.810;9.282;2022-10-31T11:07:04;30.20;47.00
1367;DHT22;16877;48.810;9.282;2022-10-31T11:09:31;30.20;47.20
1367;DHT22;16877;48.810;9.282;2022-10-31T11:11:58;30.20;47.30
1367;DHT22;16877;48.810;9.282;2022-10-31T11:14:26;30.10;47.30
1367;DHT22;16877;48.810;9.282;2022-10-31T11:16:55;30.00;47.20
1367;DHT22;16877;48.810;9.282;2022-10-31T11:19:33;29.90;47.40
1367;DHT22;16877;48.810;9.282;2022-10-31T11:22:07;30.00;46.90
1367;DHT22;16877;48.810;9.282;2022-10-31T11:24:39;29.80;46.80
1367;DHT22;16877;48.810;9.282;2022-10-31T11:27:14;30.10;47.30
1367;DHT22;16877;48.810;9.282;2022-10-31T11:29:41;30.10;47.70
1367;DHT22;16877;48.810;9.282;2022-10-31T11:32:17;30.10;48.00
1367;DHT22;16877;48.810;9.282;2022-10-31T11:34:45;30.60;48.00
1367;DHT22;16877;48.810;9.282;2022-10-31T11:37:20;30.80;48.20
1367;DHT22;16877;48.810;9.282;2022-10-31T11:39:50;30.90;47.40
1367;DHT22;16877;48.810;9.282;2022-10-31T11:42:21;30.70;46.70
1367;DHT22;16877;48.810;9.282;2022-10-31T11:44:49;30.80;47.10
1367;DHT22;16877;48.810;9.282;2022-10-31T11:47:26;31.00;47.20
1367;DHT22;16877;48.810;9.282;2022-10-31T11:49:55;31.10;47.20
1367;DHT22;16877;48.810;9.282;2022-10-31T11:52:25;31.10;47.10
1367;DHT22;16877;48.810;9.282;2022-10-31T11:54:55;31.10;47.20
1367;DHT22;16877;48.810;9.282;2022-10-31T11:57:27;31.40;47.00
1367;DHT22;16877;48.810;9.282;2022-10-31T11:59:55;31.30;47.00
1367;DHT22;16877;48.810;9.282;2022-10-31T12:02:23;31.30;47.00
1367;DHT22;16877;48.810;9.282;2022-10-31T12:04:57;31.40;46.80
1367;DHT22;16877;48.810;9.282;2022-10-31T12:07:26;31.40;46.80
1367;DHT22;16877;48.810;9.282;2022-10-31T12:09:53;31.50;46.90
1367;DHT22;16877;48.810;9.282;2022-10-31T12:12:47;31.50;46.90
1367;DHT22;16877;48.810;9.282;2022-10-31T12:15:28;31.30;46.60
1367;DHT22;16877;48.810;9.282;2022-10-31T12:18:06;31.40;46.50
1367;DHT22;16877;48.810;9.282;2022-10-31T12:20:44;31.30;46.40
1367;DHT22;16877;48.810;9.282;2022-10-31T12:23:19;31.20;46.40
1367;DHT22;16877;48.810;9.282;2022-10-31T12:25:53;31.50;46.80
1367;DHT22;16877;48.810;9.282;2022-10-31T12:28:40;31.70;47.20
1367;DHT22;16877;48.810;9.282;2022-10-31T12:31:24;31.80;47.20
1367;DHT22;16877;48.810;9.282;2022-10-31T12:34:05;31.90;46.60
1367;DHT22;16877;48.810;9.282;2022-10-31T12:36:44;31.80;47.20
1367;DHT22;16877;48.810;9.282;2022-10-31T12:39:28;31.90;46.80
1367;DHT22;16877;48.810;9.282;2022-10-31T12:42:02;31.60;46.60
1367;DHT22;16877;48.810;9.282;2022-10-31T12:44:54;31.70;46.60
1367;DHT22;16877;48.810;9.282;2022-10-31T12:47:44;31.50;46.60
1367;DHT22;16877;48.810;9.282;2022-10-31T12:50:23;31.50;46.60
1367;DHT22;16877;48.810;9.282;2022-10-31T12:52:59;31.20;46.60
1367;DHT22;16877;48.810;9.282;2022-10-31T12:55:43;31.30;46.90
1367;DHT22;16877;48.810;9.282;2022-10-31T12:58:17;30.90;46.70
1367;DHT22;16877;48.810;9.282;2022-10-31T13:00:48;30.80;46.80
1367;DHT22;16877;48.810;9.282;2022-10-31T13:03:25;30.90;47.20
1367;DHT22;16877;48.810;9.282;2022-10-31T13:05:57;30.80;47.10
1367;DHT22;16877;48.810;9.282;2022-10-31T13:08:27;30.70;47.40
1367;DHT22;16877;48.810;9.282;2022-10-31T13:11:02;30.60;47.30
1367;DHT22;16877;48.810;9.282;2022-10-31T13:13:37;30.40;47.50
1367;DHT22;16877;48.810;9.282;2022-10-31T13:16:11;30.40;47.30
1367;DHT22;16877;48.810;9.282;2022-10-31T13:18:42;30.30;47.30
1367;DHT22;16877;48.810;9.282;2022-10-31T13:21:15;30.20;47.30
1367;DHT22;16877;48.810;9.282;2022-10-31T13:23:43;30.20;47.70
1367;DHT22;16877;48.810;9.282;2022-10-31T13:26:15;30.00;47.40
1367;DHT22;16877;48.810;9.282;2022-10-31T13:28:47;29.80;47.20
1367;DHT22;16877;48.810;9.282;2022-10-31T13:31:15;30.00;47.80
1367;DHT22;16877;48.810;9.282;2022-10-31T13:33:44;29.70;47.40
1367;DHT22;16877;48.810;9.282;2022-10-31T13:36:21;29.90;47.70
1367;DHT22;16877;48.810;9.282;2022-10-31T13:38:53;29.80;47.80
1367;DHT22;16877;48.810;9.282;2022-10-31T13:41:33;29.50;48.20
1367;DHT22;16877;48.810;9.282;2022-10-31T13:44:06;29.60;48.40
1367;DHT22;16877;48.810;9.282;2022-10-31T13:46:38;29.80;48.80
1367;DHT22;16877;48.810;9.282;2022-10-31T13:49:23;29.90;50.50
1367;DHT22;16877;48.810;9.282;2022-10-31T13:51:51;30.50;50.90
1367;DHT22;16877;48.810;9.282;2022-10-31T13:54:23;30.80;49.80
1367;DHT22;16877;48.810;9.282;2022-10-31T13:56:52;31.30;48.90
1367;DHT22;16877;48.810;9.282;2022-10-31T13:59:21;31.40;48.10
1367;DHT22;16877;48.810;9.282;2022-10-31T14:01:51;31.50;48.00
1367;DHT22;16877;48.810;9.282;2022-10-31T14:04:22;31.40;47.60
1367;DHT22;16877;48.810;9.282;2022-10-31T14:06:54;31.70;48.30
1367;DHT22;16877;48.810;9.282;2022-10-31T14:09:28;32.10;47.50
1367;DHT22;16877;48.810;9.282;2022-10-31T14:11:59;32.20;47.10
1367;DHT22;16877;48.810;9.282;2022-10-31T14:14:35;32.00;46.70
1367;DHT22;16877;48.810;9.282;2022-10-31T14:17:12;32.00;46.60
1367;DHT22;16877;48.810;9.282;2022-10-31T14:19:39;31.90;46.50
1367;DHT22;16877;48.810;9.282;2022-10-31T14:22:19;32.00;46.40
1367;DHT22;16877;48.810;9.282;2022-10-31T14:24:46;32.20;47.40
1367;DHT22;16877;48.810;9.282;2022-10-31T14:27:42;32.40;47.40
1367;DHT22;16877;48.810;9.282;2022-10-31T14:30:19;32.60;46.80
1367;DHT22;16877;48.810;9.282;2022-10-31T14:32:51;32.70;46.30
1367;DHT22;16877;48.810;9.282;2022-10-31T14:35:20;32.90;46.00
1367;DHT22;16877;48.810;9.282;2022-10-31T14:38:11;33.00;46.20
1367;DHT22;16877;48.810;9.282;2022-10-31T14:40:49;33.10;45.60
1367;DHT22;16877;48.810;9.282;2022-10-31T14:43:42;33.00;45.30
1367;DHT22;16877;48.810;9.282;2022-10-31T14:46:18;32.90;45.20
1367;DHT22;16877;48.810;9.282;2022-10-31T14:49:05;32.70;45.20
1367;DHT22;16877;48.810;9.282;2022-10-31T14:51:38;32.70;45.00
1367;DHT22;16877;48.810;9.282;2022-10-31T14:54:07;32.50;44.80
1367;DHT22;16877;48.810;9.282;2022-10-31T14:56:43;32.20;44.80
1367;DHT22;16877;48.810;9.282;2022-10-31T14:59:19;32.10;44.70
1367;DHT22;16877;48.810;9.282;2022-10-31T15:01:54;32.00;45.00
1367;DHT22;16877;48.810;9.282;2022-10-31T15:04:23;31.90;45.00
1367;DHT22;16877;48.810;9.282;2022-10-31T15:06:54;31.70;45.00
1367;DHT22;16877;48.810;9.282;2022-10-31T15:09:23;31.60;45.10
1367;DHT22;16877;48.810;9.282;2022-10-31T15:11:50;31.70;45.50
1367;DHT22;16877;48.810;9.282;2022-10-31T15:14:23;31.50;45.40
1367;DHT22;16877;48.810;9.282;2022-10-31T15:16:51;31.40;45.30
1367;DHT22;16877;48.810;9.282;2022-10-31T15:19:21;31.20;45.30
1367;DHT22;16877;48.810;9.282;2022-10-31T15:21:51;31.10;45.40
1367;DHT22;16877;48.810;9.282;2022-10-31T15:24:19;31.10;45.60
1367;DHT22;16877;48.810;9.282;2022-10-31T15:26:48;30.90;45.70
1367;DHT22;16877;48.810;9.282;2022-10-31T15:29:17;30.70;45.90
1367;DHT22;16877;48.810;9.282;2022-10-31T15:31:52;30.70;45.90
1367;DHT22;16877;48.810;9.282;2022-10-31T15:34:24;30.50;46.10
1367;DHT22;16877;48.810;9.282;2022-10-31T15:36:52;30.20;46.10
1367;DHT22;16877;48.810;9.282;2022-10-31T15:39:19;30.00;46.00
1367;DHT22;16877;48.810;9.282;2022-10-31T15:41:50;30.00;46.30
1367;DHT22;16877;48.810;9.282;2022-10-31T15:44:21;29.90;47.10
1367;DHT22;16877;48.810;9.282;2022-10-31T15:46:54;29.70;46.40
1367;DHT22;16877;48.810;9.282;2022-10-31T15:49:29;29.60;46.60
1367;DHT22;16877;48.810;9.282;2022-10-31T15:52:03;29.40;46.90
1367;DHT22;16877;48.810;9.282;2022-10-31T15:54:30;29.30;47.20
1367;DHT22;16877;48.810;9.282;2022-10-31T15:56:57;29.10;47.10
1367;DHT22;16877;48.810;9.282;2022-10-31T15:59:26;29.10;47.30
1367;DHT22;16877;48.810;9.282;2022-10-31T16:02:00;29.10;47.90
1367;DHT22;16877;48.810;9.282;2022-10-31T16:04:28;28.80;47.80
1367;DHT22;16877;48.810;9.282;2022-10-31T16:07:00;28.70;48.20